^^
B2 Weather Station Historical Data
Daily Summary for August 1, 2018 Units:  English    Metric   Both
Daily Weekly Monthly Yearly Custom
  High: Low: Average:
Temperature: 85.5 °F 59.8 °F 72.5 °F
Dew Point: 67.5 °F 58.1 °F 62.8 °F
Humidity: 94% 45% 74%
Wind Speed: 13.8mph 0mph 2.4mph
Wind Gust: 9.6mph - -
Wind- - West
Pressure: 29.98 in 29.91 in -
Precipitation: 0.012 in    
Historical Graphs
 
 
Tabular Data for August 1, 2018
Time Temperature Dew Point Pressure Wind Wind Speed Wind Gust Humidity Rainfall Rate (Hourly) solar
00:04 60.7 °F 59 °F 29.95 in Calm     94% 0 in 0.00 W/m2
00:09 61.9 °F 60.2 °F 29.95 in Calm     94% 0 in 0.00 W/m2
00:14 62.1 °F 60.1 °F 29.95 in Calm     93% 0 in 0.00 W/m2
00:19 61.3 °F 59.6 °F 29.95 in Calm     94% 0 in 0.00 W/m2
00:24 62 °F 60.3 °F 29.95 in Calm     94% 0 in 0.00 W/m2
00:29 61.7 °F 60 °F 29.95 in Calm     94% 0 in 0.00 W/m2
00:34 61.8 °F 60.1 °F 29.95 in Calm     94% 0 in 0.00 W/m2
00:39 62.3 °F 60.6 °F 29.95 in Calm     94% 0 in 0.00 W/m2
00:44 62.7 °F 60.9 °F 29.95 in Calm     94% 0 in 0.00 W/m2
00:49 62.8 °F 61 °F 29.95 in Calm     94% 0 in 0.00 W/m2
00:54 62.9 °F 61.1 °F 29.95 in Calm     94% 0 in 0.00 W/m2
00:59 62.9 °F 61.1 °F 29.95 in Calm     94% 0 in 0.00 W/m2
01:04 62.7 °F 60.9 °F 29.95 in Calm     94% 0 in 0.00 W/m2
01:09 61.8 °F 60.1 °F 29.95 in Calm     94% 0 in 0.00 W/m2
01:14 61.2 °F 59.2 °F 29.95 in Calm     93% 0 in 0.00 W/m2
01:19 60.9 °F 59.2 °F 29.94 in Calm     94% 0 in 0.00 W/m2
01:24 60.6 °F 58.9 °F 29.94 in Calm     94% 0 in 0.00 W/m2
01:29 60.2 °F 58.5 °F 29.94 in Calm     94% 0 in 0.00 W/m2
01:34 59.8 °F 58.1 °F 29.94 in Calm     94% 0 in 0.00 W/m2
01:39 61.1 °F 59.1 °F 29.94 in Calm     93% 0 in 0.00 W/m2
01:44 62.3 °F 60.2 °F 29.94 in Calm     93% 0 in 0.00 W/m2
01:49 62.9 °F 61.1 °F 29.94 in Calm     94% 0 in 0.00 W/m2
01:54 63.1 °F 61.3 °F 29.94 in Calm     94% 0 in 0.00 W/m2
01:59 63.2 °F 61.4 °F 29.95 in Calm     94% 0 in 0.00 W/m2
02:04 63.2 °F 61.4 °F 29.95 in Calm     94% 0 in 0.00 W/m2
02:09 63.3 °F 61.5 °F 29.95 in Calm     94% 0 in 0.00 W/m2
02:14 63.4 °F 61.6 °F 29.95 in Calm     94% 0 in 0.00 W/m2
02:19 63.4 °F 61.6 °F 29.95 in Calm     94% 0 in 0.00 W/m2
02:24 63.4 °F 61.6 °F 29.95 in Calm     94% 0 in 0.00 W/m2
02:29 63.4 °F 61.6 °F 29.95 in Calm     94% 0 in 0.00 W/m2
02:34 63.3 °F 61.5 °F 29.95 in Calm   0.1 mph 94% 0 in 0.00 W/m2
02:39 63.4 °F 61.6 °F 29.95 in Calm     94% 0 in 0.00 W/m2
02:44 63.4 °F 61.6 °F 29.95 in West 1.2 mph   94% 0 in 0.00 W/m2
02:49 63.3 °F 61.5 °F 29.95 in Calm     94% 0 in 0.00 W/m2
02:54 63.3 °F 61.5 °F 29.95 in Calm     94% 0 in 0.00 W/m2
02:59 63.2 °F 61.1 °F 29.95 in Calm   0.1 mph 93% 0 in 0.00 W/m2
03:04 63.2 °F 61.1 °F 29.95 in Calm     93% 0 in 0.00 W/m2
03:09 63.2 °F 61.1 °F 29.95 in West 3.5 mph 0.7 mph 93% 0 in 0.00 W/m2
03:14 63.2 °F 61.1 °F 29.95 in Calm     93% 0 in 0.00 W/m2
03:19 63.2 °F 61.1 °F 29.95 in West 2.3 mph   93% 0 in 0.00 W/m2
03:24 63.1 °F 61 °F 29.95 in West 1.2 mph   93% 0 in 0.00 W/m2
03:29 63.1 °F 61 °F 29.95 in West 1.2 mph 0.1 mph 93% 0 in 0.00 W/m2
03:34 63.1 °F 61 °F 29.95 in Calm     93% 0 in 0.00 W/m2
03:39 63.2 °F 61.1 °F 29.95 in Calm     93% 0 in 0.00 W/m2
03:44 63.1 °F 61 °F 29.95 in Calm     93% 0 in 0.00 W/m2
03:49 63 °F 60.9 °F 29.95 in Calm     93% 0 in 0.00 W/m2
03:54 63 °F 60.9 °F 29.95 in Calm     93% 0 in 0.00 W/m2
03:59 63 °F 60.9 °F 29.95 in Calm     93% 0 in 0.00 W/m2
04:04 62.9 °F 60.8 °F 29.95 in Calm     93% 0 in 0.00 W/m2
04:09 62.9 °F 60.8 °F 29.95 in Calm     93% 0 in 0.00 W/m2
04:14 62.9 °F 60.8 °F 29.95 in Calm     93% 0 in 0.00 W/m2
04:19 62.9 °F 60.8 °F 29.96 in Calm     93% 0 in 0.00 W/m2
04:24 62.8 °F 60.7 °F 29.95 in Calm     93% 0.01 in 0.00 W/m2
04:29 62.7 °F 60.6 °F 29.95 in Calm     93% 0.01 in 0.00 W/m2
04:34 62.7 °F 60.6 °F 29.95 in Calm     93% 0.01 in 0.00 W/m2
04:39 62.7 °F 60.6 °F 29.95 in Calm     93% 0.01 in 0.00 W/m2
04:44 62.6 °F 60.5 °F 29.95 in Calm     93% 0.01 in 0.00 W/m2
04:49 62.6 °F 60.5 °F 29.95 in Calm     93% 0.01 in 0.00 W/m2
04:54 62.5 °F 60.4 °F 29.96 in Calm     93% 0.01 in 0.00 W/m2
04:59 62.5 °F 60.4 °F 29.96 in WSW 1.2 mph   93% 0.01 in 0.00 W/m2
05:04 62.6 °F 60.5 °F 29.95 in Calm     93% 0.01 in 0.00 W/m2
05:09 62.6 °F 60.5 °F 29.95 in Calm   0.1 mph 93% 0.01 in 0.00 W/m2
05:14 62.7 °F 60.6 °F 29.95 in WSW 1.2 mph 0.2 mph 93% 0.01 in 0.00 W/m2
05:19 62.7 °F 60.6 °F 29.95 in WSW 1.2 mph 0.5 mph 93% 0.01 in 0.00 W/m2
05:24 62.8 °F 60.7 °F 29.95 in Calm     93% 0 in 0.00 W/m2
05:29 62.8 °F 60.7 °F 29.95 in West 3.5 mph 0.2 mph 93% 0 in 0.00 W/m2
05:34 62.8 °F 60.7 °F 29.95 in Calm     93% 0 in 0.00 W/m2
05:39 62.9 °F 60.8 °F 29.96 in Calm     93% 0 in 0.00 W/m2
05:44 62.9 °F 60.8 °F 29.96 in Calm     93% 0 in 0.00 W/m2
05:49 63 °F 60.9 °F 29.96 in West 1 mph 0.3 mph 93% 0 in 0.00 W/m2
05:54 63.1 °F 61 °F 29.96 in Calm     93% 0 in 5.00 W/m2
05:59 63.1 °F 60.7 °F 29.96 in Calm     92% 0 in 7.00 W/m2
06:04 62.8 °F 60.4 °F 29.96 in Calm     92% 0 in 9.00 W/m2
06:09 62.1 °F 59.4 °F 29.96 in Calm     91% 0 in 11.00 W/m2
06:14 61.5 °F 58.8 °F 29.96 in Calm     91% 0 in 14.00 W/m2
06:19 61.1 °F 58.8 °F 29.96 in Calm     92% 0 in 23.00 W/m2
06:24 61.1 °F 59.1 °F 29.96 in Calm     93% 0 in 32.00 W/m2
06:29 61.7 °F 59.7 °F 29.96 in Calm     93% 0 in 40.00 W/m2
06:34 62.4 °F 60.3 °F 29.96 in Calm     93% 0 in 51.00 W/m2
06:39 62.8 °F 60.7 °F 29.96 in Calm     93% 0 in 62.00 W/m2
06:44 63 °F 60.9 °F 29.96 in Calm     93% 0 in 72.00 W/m2
06:49 63.2 °F 61.1 °F 29.96 in WSW 1.2 mph 0.2 mph 93% 0 in 84.00 W/m2
06:54 63.4 °F 61.3 °F 29.96 in Calm     93% 0 in 97.00 W/m2
06:59 63.7 °F 61.6 °F 29.97 in Calm     93% 0 in 111.00 W/m2
07:04 63.9 °F 61.8 °F 29.97 in WSW 3.5 mph 1.5 mph 93% 0 in 123.00 W/m2
07:09 64.2 °F 62.1 °F 29.97 in West 3.5 mph   93% 0 in 142.00 W/m2
07:14 64.4 °F 62.3 °F 29.97 in Calm     93% 0 in 158.00 W/m2
07:19 64.7 °F 62.6 °F 29.97 in Calm     93% 0 in 172.00 W/m2
07:24 65 °F 62.9 °F 29.97 in Calm     93% 0 in 185.00 W/m2
07:29 65.4 °F 63.3 °F 29.97 in Calm   0.3 mph 93% 0 in 199.00 W/m2
07:34 65.8 °F 63.4 °F 29.97 in WSW 3.5 mph   92% 0 in 211.00 W/m2
07:39 66.2 °F 63.8 °F 29.97 in West 1.2 mph   92% 0 in 227.00 W/m2
07:44 66.5 °F 64.1 °F 29.97 in West 3.5 mph 0.7 mph 92% 0 in 243.00 W/m2
07:49 66.7 °F 64 °F 29.98 in West 4.6 mph 3.2 mph 91% 0 in 250.00 W/m2
07:54 66.9 °F 64.2 °F 29.98 in WSW 3.5 mph 0.6 mph 91% 0 in 258.00 W/m2
07:59 67.2 °F 64.5 °F 29.98 in West 1.2 mph 0.1 mph 91% 0 in 255.00 W/m2
08:04 67.4 °F 64.4 °F 29.98 in WSW 3.5 mph 0.9 mph 90% 0 in 258.00 W/m2
08:09 67.6 °F 64.2 °F 29.98 in Calm   1.1 mph 89% 0 in 272.00 W/m2
08:14 68 °F 64.6 °F 29.98 in WSW 3.5 mph 2.1 mph 89% 0 in 281.00 W/m2
08:19 68.2 °F 64.2 °F 29.98 in West 3.5 mph   87% 0 in 269.00 W/m2
08:24 68.6 °F 63.9 °F 29.98 in West 1.2 mph 0.1 mph 85% 0 in 264.00 W/m2
08:29 69.2 °F 64.2 °F 29.98 in WNW 1 mph   84% 0 in 288.00 W/m2
08:34 69.8 °F 63.7 °F 29.98 in WNW 2 mph 0.2 mph 81% 0 in 325.00 W/m2
08:39 70.4 °F 63.9 °F 29.98 in NW 3.5 mph 1.4 mph 80% 0 in 364.00 W/m2
08:44 70.8 °F 64.3 °F 29.98 in Calm     80% 0 in 406.00 W/m2
08:49 71.2 °F 64.4 °F 29.98 in West 2 mph 0.1 mph 79% 0 in 429.00 W/m2
08:54 71.6 °F 64.7 °F 29.98 in Calm     79% 0 in 462.00 W/m2
08:59 72.1 °F 64.9 °F 29.98 in West 3.5 mph   78% 0 in 494.00 W/m2
09:04 72.6 °F 65 °F 29.98 in West 4 mph 1 mph 77% 0 in 519.00 W/m2
09:09 72.8 °F 65.5 °F 29.98 in West 3.5 mph   78% 0 in 529.00 W/m2
09:14 73.1 °F 65.8 °F 29.98 in West 1.2 mph   78% 0 in 541.00 W/m2
09:19 73.5 °F 66.2 °F 29.98 in Calm   0.1 mph 78% 0 in 547.00 W/m2
09:24 73.9 °F 66.6 °F 29.98 in Calm     78% 0 in 566.00 W/m2
09:29 74.4 °F 66.3 °F 29.98 in Calm     76% 0 in 585.00 W/m2
09:34 74.8 °F 66.7 °F 29.98 in North 1.2 mph   76% 0 in 666.00 W/m2
09:39 75.6 °F 67.5 °F 29.98 in NW 1.2 mph   76% 0 in 443.00 W/m2
09:44 75.7 °F 66.4 °F 29.98 in West 4.6 mph 0.3 mph 73% 0 in 445.00 W/m2
09:49 75.8 °F 66.1 °F 29.98 in West 2.3 mph 1.7 mph 72% 0 in 682.00 W/m2
09:54 76.2 °F 66.5 °F 29.98 in Calm     72% 0 in 626.00 W/m2
09:59 76.6 °F 66.5 °F 29.98 in West 3.5 mph 0.6 mph 71% 0 in 687.00 W/m2
10:04 76.9 °F 66.4 °F 29.98 in SW 7 mph 3 mph 70% 0 in 696.00 W/m2
10:09 77.3 °F 66.3 °F 29.98 in West 3.5 mph 0.1 mph 69% 0 in 696.00 W/m2
10:14 77.5 °F 66.9 °F 29.98 in Calm     70% 0 in 745.00 W/m2
10:19 77.9 °F 65.6 °F 29.98 in WNW 4 mph   66% 0 in 775.00 W/m2
10:24 78.5 °F 66.6 °F 29.98 in NW 3.5 mph   67% 0 in 782.00 W/m2
10:29 78.8 °F 64.2 °F 29.98 in WNW 6.9 mph 0.8 mph 61% 0 in 791.00 W/m2
10:34 79 °F 65.8 °F 29.98 in NNW 3.5 mph 0.2 mph 64% 0 in 640.00 W/m2
10:39 79.1 °F 66.3 °F 29.98 in WNW 2 mph 1.4 mph 65% 0 in 520.00 W/m2
10:44 79.1 °F 65.9 °F 29.98 in WSW 3.5 mph 0.1 mph 64% 0 in 413.00 W/m2
10:49 78.9 °F 66.1 °F 29.98 in WSW 5.8 mph 4.7 mph 65% 0 in 626.00 W/m2
10:54 79 °F 66.2 °F 29.98 in SW 3.5 mph 0.5 mph 65% 0 in 534.00 W/m2
10:59 78.9 °F 65.2 °F 29.98 in WSW 5 mph 1.2 mph 63% 0 in 494.00 W/m2
11:05 78.7 °F 65 °F 29.98 in North 6 mph 1.5 mph 63% 0 in 302.00 W/m2
11:19 78.5 °F 65.3 °F 29.98 in WNW 7 mph 1.5 mph 64% 0 in 687.00 W/m2
11:31 79.6 °F 65.4 °F 29.97 in West 5 mph 1.6 mph 62% 0 in 722.00 W/m2
11:43 79.7 °F 65.1 °F 29.97 in SW 6 mph 2.5 mph 61% 0 in 831.00 W/m2
12:06 80.1 °F 62 °F 29.96 in WNW 9 mph 2.7 mph 54% 0 in 860.00 W/m2
12:55 80.7 °F 63.5 °F 29.96 in SW 7 mph 2.7 mph 56% 0 in 942.00 W/m2
13:24 81.1 °F 61.8 °F 29.95 in Calm   0.2 mph 52% 0.002 in 853.00 W/m2
13:29 81.7 °F 62.4 °F 29.95 in West 3.5 mph 0.9 mph 52% 0.002 in 1005.00 W/m2
13:34 82.1 °F 62.2 °F 29.95 in Calm     51% 0.002 in 1016.00 W/m2
13:39 82.3 °F 61.8 °F 29.95 in Calm     50% 0.002 in 234.00 W/m2
13:44 82.5 °F 62.5 °F 29.94 in SW 9 mph 4.6 mph 51% 0.002 in 983.00 W/m2
13:49 82.9 °F 62.4 °F 29.94 in West 9 mph 3.5 mph 50% 0.002 in 977.00 W/m2
13:54 83.2 °F 62.1 °F 29.94 in West 5.8 mph 2.3 mph 49% 0.002 in 974.00 W/m2
13:59 83.3 °F 63.8 °F 29.94 in SSE 5.8 mph 3.9 mph 52% 0.002 in 988.00 W/m2
14:04 83.2 °F 62.6 °F 29.94 in Calm     50% 0.002 in 209.00 W/m2
14:09 83.4 °F 62.8 °F 29.93 in WNW 4.6 mph 2.5 mph 50% 0.002 in 928.00 W/m2
14:14 83.7 °F 63.1 °F 29.93 in NW 5.8 mph 0.5 mph 50% 0.002 in 895.00 W/m2
14:19 83.7 °F 64.2 °F 29.93 in South 5.8 mph 2.9 mph 52% 0.002 in 209.00 W/m2
14:24 84.1 °F 64 °F 29.93 in North 8.1 mph 4.6 mph 51% 0 in 963.00 W/m2
14:29 84.2 °F 62.4 °F 29.93 in NW 10.4 mph 4.1 mph 48% 0 in 253.00 W/m2
14:34 83.8 °F 63.2 °F 29.93 in Calm     50% 0 in 255.00 W/m2
14:39 83.1 °F 63.1 °F 29.93 in SSW 7 mph 2.1 mph 51% 0 in 262.00 W/m2
14:44 83.4 °F 64.5 °F 29.93 in WNW 8.1 mph 4 mph 53% 0 in 953.00 W/m2
14:49 83.5 °F 62.9 °F 29.93 in North 11.5 mph 6.7 mph 50% 0 in 223.00 W/m2
14:54 82.9 °F 62.9 °F 29.93 in North 10.4 mph 4.1 mph 51% 0 in 225.00 W/m2
14:59 83.2 °F 63.7 °F 29.93 in WSW 7 mph 4 mph 52% 0 in 882.00 W/m2
15:04 83.5 °F 63.5 °F 29.93 in WSW 5.8 mph 2.9 mph 51% 0 in 151.00 W/m2
15:09 82.7 °F 62.2 °F 29.93 in WSW 1.2 mph   50% 0 in 169.00 W/m2
15:14 82.7 °F 63.8 °F 29.92 in SSW 8.1 mph 2.9 mph 53% 0 in 849.00 W/m2
15:19 84 °F 63.4 °F 29.92 in SSW 8.1 mph 2.5 mph 50% 0 in 821.00 W/m2
15:24 84.7 °F 63.4 °F 29.92 in SW 5.8 mph 3.3 mph 49% 0 in 830.00 W/m2
15:29 85 °F 63.7 °F 29.92 in SW 11.5 mph 4.9 mph 49% 0 in 824.00 W/m2
15:34 84.7 °F 62.8 °F 29.92 in SW 10.4 mph 3.2 mph 48% 0 in 805.00 W/m2
15:39 84.7 °F 62.8 °F 29.92 in South 4.6 mph 1.5 mph 48% 0 in 661.00 W/m2
15:44 84.7 °F 63.4 °F 29.92 in SSW 5.8 mph 2 mph 49% 0 in 795.00 W/m2
15:49 84.6 °F 63.3 °F 29.92 in North 13.8 mph 2.6 mph 49% 0 in 784.00 W/m2
15:54 84.6 °F 63.3 °F 29.92 in SW 3 mph 2.9 mph 49% 0 in 680.00 W/m2
15:59 84.3 °F 62.5 °F 29.93 in SW 3.5 mph 0.6 mph 48% 0 in 251.00 W/m2
16:04 84.4 °F 62.6 °F 29.92 in SSW 8.1 mph 1.4 mph 48% 0 in 691.00 W/m2
16:09 84.3 °F 61.9 °F 29.92 in North 8.1 mph 3.8 mph 47% 0 in 615.00 W/m2
16:14 84.3 °F 62.5 °F 29.92 in SSW 5.8 mph 2.8 mph 48% 0 in 831.00 W/m2
16:19 85.4 °F 62.3 °F 29.92 in North 5.8 mph 2.3 mph 46% 0 in 633.00 W/m2
16:24 85.5 °F 61.7 °F 29.92 in North 10 mph 9.6 mph 45% 0 in 476.00 W/m2
16:29 84.4 °F 62 °F 29.92 in WSW 4.6 mph 0.3 mph 47% 0 in 390.00 W/m2
16:34 84.1 °F 62.3 °F 29.92 in WSW 8.1 mph 0.7 mph 48% 0 in 323.00 W/m2
16:39 83.7 °F 62.5 °F 29.92 in SW 7 mph 2.8 mph 49% 0 in 234.00 W/m2
16:44 83.4 °F 62.8 °F 29.92 in Calm   1 mph 50% 0 in 302.00 W/m2
16:49 83 °F 62.4 °F 29.93 in North 11.5 mph 7 mph 50% 0 in 185.00 W/m2
16:54 82.5 °F 62.5 °F 29.93 in SW 8.1 mph 3.3 mph 51% 0 in 206.00 W/m2
16:59 82.7 °F 63.3 °F 29.93 in West 2.3 mph 0.2 mph 52% 0 in 619.00 W/m2
17:04 83.7 °F 64.2 °F 29.93 in SSW 4 mph 4.1 mph 52% 0 in 621.00 W/m2
17:09 84.1 °F 63.5 °F 29.93 in SSW 5.8 mph 2.6 mph 50% 0 in 570.00 W/m2
17:14 84.4 °F 62.6 °F 29.93 in SSW 9.2 mph 5.5 mph 48% 0 in 517.00 W/m2
17:19 84.1 °F 62.9 °F 29.92 in North 11.5 mph 6.7 mph 49% 0 in 466.00 W/m2
17:24 83.7 °F 62.5 °F 29.93 in WSW 6 mph 3.6 mph 49% 0 in 434.00 W/m2
17:29 83.6 °F 63.6 °F 29.92 in North 3.5 mph 2.2 mph 51% 0 in 417.00 W/m2
17:34 83.7 °F 64.2 °F 29.92 in WSW 7 mph 2.6 mph 52% 0 in 399.00 W/m2
17:39 83.6 °F 63.6 °F 29.92 in West 5.8 mph 4.6 mph 51% 0 in 387.00 W/m2
17:44 83.4 °F 63.9 °F 29.92 in West 4.6 mph 1.4 mph 52% 0 in 367.00 W/m2
17:49 83.4 °F 64.5 °F 29.93 in North 9.2 mph 3.6 mph 53% 0 in 352.00 W/m2
17:54 83.3 °F 64.4 °F 29.92 in North 4.6 mph 1.8 mph 53% 0 in 322.00 W/m2
17:59 83.4 °F 65 °F 29.92 in Calm     54% 0 in 304.00 W/m2
18:04 83.5 °F 64 °F 29.92 in WNW 3.5 mph 0.2 mph 52% 0 in 311.00 W/m2
18:09 83.3 °F 63.8 °F 29.92 in West 5.8 mph 1.1 mph 52% 0 in 301.00 W/m2
18:14 83.3 °F 64.4 °F 29.92 in North 3.5 mph   53% 0 in 290.00 W/m2
18:19 83.4 °F 63.9 °F 29.92 in North 6 mph 1.7 mph 52% 0 in 281.00 W/m2
18:24 83.2 °F 63.7 °F 29.91 in Calm     52% 0 in 265.00 W/m2
18:29 83.1 °F 63.7 °F 29.92 in West 4.6 mph 2.5 mph 52% 0 in 246.00 W/m2
18:34 82.8 °F 62.8 °F 29.92 in North 6.9 mph 2.6 mph 51% 0 in 225.00 W/m2
18:39 82.4 °F 62.5 °F 29.91 in WSW 8.1 mph 5.3 mph 51% 0 in 69.00 W/m2
18:44 82 °F 62.6 °F 29.91 in North 9.2 mph 5 mph 52% 0 in 183.00 W/m2
18:49 81.8 °F 62.5 °F 29.91 in SSW 8.1 mph 4.8 mph 52% 0 in 167.00 W/m2
18:54 81.5 °F 62.2 °F 29.91 in SSW 8.1 mph 4.2 mph 52% 0 in 70.00 W/m2
18:59 81.3 °F 62 °F 29.91 in SW 6 mph 1.3 mph 52% 0 in 123.00 W/m2
19:04 81.2 °F 61.9 °F 29.91 in SW 3.5 mph 0.3 mph 52% 0 in 49.00 W/m2
19:09 81.1 °F 62.3 °F 29.91 in Calm     53% 0 in 44.00 W/m2
19:14 81 °F 62.3 °F 29.91 in WSW 6 mph 2.2 mph 53% 0 in 37.00 W/m2
19:19 80.8 °F 62.1 °F 29.91 in Calm     53% 0 in 33.00 W/m2
19:24 80.6 °F 61.9 °F 29.91 in North 6.9 mph 1.1 mph 53% 0 in 28.00 W/m2
19:29 80.4 °F 62.2 °F 29.91 in Calm     54% 0 in 25.00 W/m2
19:34 80.3 °F 62.7 °F 29.91 in Calm     55% 0 in 19.00 W/m2
19:39 80.1 °F 62.5 °F 29.91 in Calm     55% 0 in 14.00 W/m2
19:44 79.8 °F 62.7 °F 29.91 in Calm     56% 0 in 11.00 W/m2
19:49 79.3 °F 63.2 °F 29.92 in Calm     58% 0 in 7.00 W/m2
19:54 78.7 °F 63.6 °F 29.92 in Calm     60% 0 in 7.00 W/m2
19:59 78.2 °F 64.1 °F 29.92 in Calm     62% 0 in 5.00 W/m2
20:04 77.6 °F 64.5 °F 29.92 in Calm     64% 0 in 0.00 W/m2
20:09 77.2 °F 64.1 °F 29.92 in Calm     64% 0 in 0.00 W/m2
20:14 76.8 °F 64.1 °F 29.92 in Calm     65% 0 in 0.00 W/m2
20:19 76.5 °F 64.3 °F 29.92 in SSW 1.2 mph   66% 0 in 0.00 W/m2
20:24 76.3 °F 64.5 °F 29.92 in Calm     67% 0 in 0.00 W/m2
20:29 76 °F 64.2 °F 29.93 in Calm     67% 0 in 0.00 W/m2
20:34 75.6 °F 64.3 °F 29.93 in Calm     68% 0 in 0.00 W/m2
20:39 75.1 °F 64.6 °F 29.93 in Calm     70% 0 in 0.00 W/m2
20:44 74.5 °F 64.5 °F 29.93 in Calm     71% 0 in 0.00 W/m2
20:49 74.2 °F 64.2 °F 29.93 in Calm     71% 0 in 0.00 W/m2
20:54 74 °F 64.4 °F 29.93 in Calm     72% 0 in 0.00 W/m2
20:59 73.8 °F 64.2 °F 29.93 in Calm     72% 0 in 0.00 W/m2
21:04 73.7 °F 64.5 °F 29.93 in Calm     73% 0 in 0.00 W/m2
21:09 73.6 °F 64.4 °F 29.93 in Calm     73% 0 in 0.00 W/m2
21:14 73.6 °F 64.8 °F 29.94 in Calm     74% 0 in 0.00 W/m2
21:19 73.8 °F 65 °F 29.94 in SSW 1.2 mph   74% 0 in 0.00 W/m2
21:24 74 °F 64.8 °F 29.94 in SW 1.2 mph 0.5 mph 73% 0 in 0.00 W/m2
21:29 74 °F 64.8 °F 29.94 in SSW 1.2 mph   73% 0 in 0.00 W/m2
21:34 73.9 °F 65.1 °F 29.94 in North 3.5 mph   74% 0 in 0.00 W/m2
21:39 73.8 °F 65 °F 29.94 in SSW 2 mph 0.9 mph 74% 0 in 0.00 W/m2
21:44 73.8 °F 65 °F 29.94 in Calm   0.5 mph 74% 0 in 0.00 W/m2
21:49 73.7 °F 65.3 °F 29.94 in Calm     75% 0 in 0.00 W/m2
21:54 73.6 °F 65.2 °F 29.94 in SSW 3.5 mph 0.5 mph 75% 0 in 0.00 W/m2
21:59 73.5 °F 65.1 °F 29.94 in SSW 1.2 mph   75% 0 in 0.00 W/m2
22:04 73.3 °F 64.9 °F 29.95 in SSW 2.3 mph   75% 0 in 0.00 W/m2
22:09 73.1 °F 65.1 °F 29.95 in SSW 1.2 mph   76% 0 in 0.00 W/m2
22:14 72.8 °F 65.2 °F 29.95 in Calm     77% 0 in 0.00 W/m2
22:19 72.4 °F 64.8 °F 29.94 in Calm     77% 0 in 0.00 W/m2
22:24 72.1 °F 64.9 °F 29.95 in SW 1.2 mph   78% 0 in 0.00 W/m2
22:29 71.8 °F 64.6 °F 29.95 in Calm     78% 0 in 0.00 W/m2
22:34 71.2 °F 64.7 °F 29.95 in Calm     80% 0 in 0.00 W/m2
22:39 70.6 °F 64.1 °F 29.95 in Calm     80% 0 in 0.00 W/m2
22:44 69.8 °F 63.7 °F 29.95 in Calm     81% 0 in 0.00 W/m2
22:49 69.2 °F 63.8 °F 29.95 in Calm     83% 0 in 0.00 W/m2
22:54 68.6 °F 63.6 °F 29.95 in Calm     84% 0 in 0.00 W/m2
22:59 68.3 °F 63.6 °F 29.95 in Calm     85% 0 in 0.00 W/m2
23:04 68 °F 63.7 °F 29.95 in Calm     86% 0 in 0.00 W/m2
23:09 67.7 °F 63.4 °F 29.95 in Calm     86% 0 in 0.00 W/m2
23:14 67.4 °F 63.4 °F 29.95 in Calm     87% 0 in 0.00 W/m2
23:19 67.1 °F 63.1 °F 29.95 in Calm     87% 0 in 0.00 W/m2
23:24 67.1 °F 63.4 °F 29.95 in Calm     88% 0 in 0.00 W/m2
23:29 66.9 °F 62.9 °F 29.95 in Calm     87% 0 in 0.00 W/m2
23:34 66.5 °F 62.8 °F 29.95 in Calm     88% 0 in 0.00 W/m2
23:39 66.3 °F 63 °F 29.95 in Calm     89% 0 in 0.00 W/m2
23:44 66.2 °F 62.9 °F 29.95 in Calm     89% 0 in 0.00 W/m2
23:49 66.2 °F 62.9 °F 29.95 in Calm     89% 0 in 0.00 W/m2
23:54 66.5 °F 63.5 °F 29.95 in Calm     90% 0 in 0.00 W/m2
23:59 66.6 °F 63.3 °F 29.96 in Calm     89% 0 in 0.00 W/m2
Bourbonnais, Illinois, USA
Compliments of Weather Underground - 4 mb